createdAt,value
2023-04-26T00:00:42.486Z,7.80
2023-04-26T00:03:09.925Z,7.80
2023-04-26T00:05:38.242Z,7.70
2023-04-26T00:08:05.354Z,7.80
2023-04-26T00:10:32.369Z,7.70
2023-04-26T00:12:59.280Z,7.70
2023-04-26T00:15:26.226Z,7.70
2023-04-26T00:17:53.389Z,7.70
2023-04-26T00:20:20.382Z,7.70
2023-04-26T00:22:48.366Z,7.60
2023-04-26T00:25:15.601Z,7.60
2023-04-26T00:27:42.602Z,7.60
2023-04-26T00:30:10.692Z,7.50
2023-04-26T00:32:37.834Z,7.50
2023-04-26T00:35:06.418Z,7.50
2023-04-26T00:37:33.413Z,7.50
2023-04-26T00:40:00.415Z,7.40
2023-04-26T00:42:27.719Z,7.40
2023-04-26T00:44:57.912Z,7.30
2023-04-26T00:47:31.101Z,7.30
2023-04-26T00:50:01.810Z,7.30
2023-04-26T00:52:29.578Z,7.30
2023-04-26T00:54:57.454Z,7.30
2023-04-26T00:57:24.414Z,7.20
2023-04-26T00:59:51.545Z,7.20
2023-04-26T01:02:19.078Z,7.10
2023-04-26T01:04:46.172Z,7.10
2023-04-26T01:07:13.290Z,7.00
2023-04-26T01:09:41.100Z,7.00
2023-04-26T01:12:08.934Z,7.00
2023-04-26T01:14:39.035Z,7.00
2023-04-26T01:17:06.367Z,6.90
2023-04-26T01:19:33.399Z,6.90
2023-04-26T01:22:00.512Z,6.90
2023-04-26T01:24:27.512Z,6.90
2023-04-26T01:26:54.438Z,6.90
2023-04-26T01:29:22.488Z,6.90
2023-04-26T01:31:49.895Z,6.80
2023-04-26T01:34:16.952Z,6.80
2023-04-26T01:36:43.952Z,6.80
2023-04-26T01:39:10.935Z,6.80
2023-04-26T01:41:38.310Z,6.80
2023-04-26T01:44:05.458Z,6.70
2023-04-26T01:46:32.643Z,6.70
2023-04-26T01:48:59.716Z,6.70
2023-04-26T01:51:27.275Z,6.70
2023-04-26T01:53:54.411Z,6.70
2023-04-26T01:56:23.700Z,6.70
2023-04-26T01:58:50.886Z,6.60
2023-04-26T02:01:18.086Z,6.60
2023-04-26T02:03:45.074Z,6.60
2023-04-26T02:06:12.017Z,6.60
2023-04-26T02:08:39.001Z,6.60
2023-04-26T02:11:06.048Z,6.60
2023-04-26T02:13:33.010Z,6.60
2023-04-26T02:16:00.215Z,6.60
2023-04-26T02:18:27.717Z,6.60
2023-04-26T02:20:54.760Z,6.60
2023-04-26T02:23:22.216Z,6.60
2023-04-26T02:25:49.696Z,6.60
2023-04-26T02:28:16.844Z,6.50
2023-04-26T02:30:44.860Z,6.60
2023-04-26T02:33:11.807Z,6.60
2023-04-26T02:35:38.714Z,6.60
2023-04-26T02:38:05.812Z,6.60
2023-04-26T02:40:32.769Z,6.60
2023-04-26T02:42:59.666Z,6.50
2023-04-26T02:45:26.692Z,6.50
2023-04-26T02:47:53.701Z,6.50
2023-04-26T02:50:21.086Z,6.40
2023-04-26T02:52:48.056Z,6.40
2023-04-26T02:55:15.045Z,6.30
2023-04-26T02:57:42.018Z,6.30
2023-04-26T03:00:09.584Z,6.30
2023-04-26T03:02:36.907Z,6.30
2023-04-26T03:05:04.426Z,6.30
2023-04-26T03:07:32.036Z,6.30
2023-04-26T03:09:59.137Z,6.30
2023-04-26T03:12:26.594Z,6.30
2023-04-26T03:14:53.611Z,6.20
2023-04-26T03:17:21.761Z,6.10
2023-04-26T03:19:48.739Z,6.00
2023-04-26T03:22:16.481Z,5.90
2023-04-26T03:24:44.689Z,5.90
2023-04-26T03:27:11.797Z,5.90
2023-04-26T03:29:38.790Z,5.90
2023-04-26T03:32:06.327Z,5.90
2023-04-26T03:34:33.347Z,5.90
2023-04-26T03:37:00.311Z,5.90
2023-04-26T03:39:27.298Z,5.90
2023-04-26T03:41:54.266Z,5.90
2023-04-26T03:44:21.278Z,5.90
2023-04-26T03:46:48.197Z,5.90
2023-04-26T03:49:16.280Z,6.00
2023-04-26T03:51:43.228Z,6.00
2023-04-26T03:54:11.489Z,6.00
2023-04-26T03:56:39.259Z,6.00
2023-04-26T03:59:06.975Z,6.00
2023-04-26T04:01:33.914Z,6.00
2023-04-26T04:04:01.211Z,6.00
2023-04-26T04:06:28.462Z,5.90
2023-04-26T04:08:55.773Z,5.90
2023-04-26T04:11:23.313Z,5.80
2023-04-26T04:13:50.346Z,5.70
2023-04-26T04:16:17.352Z,5.70
2023-04-26T04:18:44.318Z,5.60
2023-04-26T04:21:11.438Z,5.60
2023-04-26T04:23:38.789Z,5.50
2023-04-26T04:26:05.929Z,5.50
2023-04-26T04:28:34.607Z,5.50
2023-04-26T04:31:01.967Z,5.50
2023-04-26T04:33:29.690Z,5.50
2023-04-26T04:35:56.824Z,5.40
2023-04-26T04:38:24.291Z,5.40
2023-04-26T04:40:51.374Z,5.40
2023-04-26T04:43:18.578Z,5.40
2023-04-26T04:45:45.535Z,5.50
2023-04-26T04:48:13.831Z,5.50
2023-04-26T04:50:42.165Z,5.60
2023-04-26T04:53:09.353Z,5.60
2023-04-26T04:55:36.727Z,5.70
2023-04-26T04:58:04.057Z,5.80
2023-04-26T05:00:31.168Z,5.80
2023-04-26T05:02:58.680Z,5.90
2023-04-26T05:05:25.912Z,5.90
2023-04-26T05:07:53.502Z,6.00
2023-04-26T05:10:20.545Z,6.00
2023-04-26T05:12:47.728Z,6.10
2023-04-26T05:15:14.800Z,6.10
2023-04-26T05:17:42.391Z,6.10
2023-04-26T05:20:11.165Z,6.10
2023-04-26T05:22:39.795Z,6.20
2023-04-26T05:25:08.345Z,6.20
2023-04-26T05:27:36.882Z,6.20
2023-04-26T05:30:05.977Z,6.20
2023-04-26T05:32:32.943Z,6.30
2023-04-26T05:34:59.963Z,6.30
2023-04-26T05:37:26.880Z,6.30
2023-04-26T05:39:53.780Z,6.40
2023-04-26T05:42:20.771Z,6.50
2023-04-26T05:44:47.745Z,6.60
2023-04-26T05:47:14.718Z,6.60
2023-04-26T05:49:41.720Z,6.70
2023-04-26T05:52:08.649Z,6.80
2023-04-26T05:54:36.186Z,6.90
2023-04-26T05:57:03.657Z,7.00
2023-04-26T05:59:33.063Z,7.10
2023-04-26T06:02:00.167Z,7.10
2023-04-26T06:04:27.529Z,7.20
2023-04-26T06:06:54.644Z,7.20
2023-04-26T06:09:21.555Z,7.30
2023-04-26T06:11:48.513Z,7.30
2023-04-26T06:14:29.453Z,7.30
2023-04-26T06:16:58.955Z,7.40
2023-04-26T06:19:25.984Z,7.50
2023-04-26T06:21:55.396Z,7.60
2023-04-26T06:24:24.719Z,7.70
2023-04-26T06:26:51.854Z,7.80
2023-04-26T06:29:18.828Z,8.00
2023-04-26T06:31:46.234Z,8.20
2023-04-26T06:34:14.439Z,8.40
2023-04-26T06:36:42.469Z,8.50
2023-04-26T06:39:09.473Z,8.60
2023-04-26T06:41:36.434Z,8.70
2023-04-26T06:44:03.485Z,8.80
2023-04-26T06:46:30.504Z,8.90
2023-04-26T06:48:57.533Z,8.90
2023-04-26T06:51:24.483Z,8.90
2023-04-26T06:53:52.598Z,9.00
2023-04-26T06:56:19.981Z,9.00
2023-04-26T06:59:05.819Z,9.10
2023-04-26T07:01:34.125Z,9.10
2023-04-26T07:04:07.942Z,9.20
2023-04-26T07:06:35.195Z,9.40
2023-04-26T07:09:02.976Z,9.60
2023-04-26T07:11:30.227Z,9.90
2023-04-26T07:13:57.605Z,10.10
2023-04-26T07:16:24.733Z,10.40
2023-04-26T07:18:58.408Z,10.60
2023-04-26T07:21:29.692Z,10.70
2023-04-26T07:23:57.424Z,10.60
2023-04-26T07:26:26.724Z,10.60
2023-04-26T07:28:54.129Z,10.70
2023-04-26T07:31:21.302Z,11.00
2023-04-26T07:33:48.472Z,11.20
2023-04-26T07:36:15.453Z,11.60
2023-04-26T07:38:43.415Z,11.70
2023-04-26T07:41:10.507Z,11.70
2023-04-26T07:43:38.136Z,11.70
2023-04-26T07:46:05.126Z,11.70
2023-04-26T07:48:32.147Z,11.70
2023-04-26T07:51:16.058Z,11.60
2023-04-26T07:53:43.045Z,11.70
2023-04-26T07:56:10.125Z,11.60
2023-04-26T07:58:39.313Z,11.60
2023-04-26T08:01:06.704Z,11.70
2023-04-26T08:03:34.210Z,12.00
2023-04-26T08:06:02.087Z,12.20
2023-04-26T08:08:29.378Z,12.40
2023-04-26T08:10:56.475Z,12.50
2023-04-26T08:13:23.489Z,12.60
2023-04-26T08:15:51.525Z,12.80
2023-04-26T08:18:18.475Z,12.70
2023-04-26T08:20:45.429Z,12.70
2023-04-26T08:23:12.855Z,12.60
2023-04-26T08:25:40.092Z,12.80
2023-04-26T08:28:08.753Z,13.00
2023-04-26T08:30:35.831Z,13.40
2023-04-26T08:33:03.721Z,13.70
2023-04-26T08:35:30.738Z,13.80
2023-04-26T08:37:57.739Z,14.00
2023-04-26T08:40:25.506Z,14.20
2023-04-26T08:42:53.956Z,14.40
2023-04-26T08:45:24.755Z,14.60
2023-04-26T08:47:53.934Z,14.80
2023-04-26T08:50:22.576Z,15.10
2023-04-26T08:52:54.381Z,15.30
2023-04-26T08:55:21.956Z,15.50
2023-04-26T08:57:50.821Z,15.70
2023-04-26T09:00:18.867Z,15.90
2023-04-26T09:02:53.761Z,16.10
2023-04-26T09:05:24.419Z,16.20
2023-04-26T09:08:00.853Z,16.20
2023-04-26T09:10:28.375Z,16.40
2023-04-26T09:12:56.044Z,16.50
2023-04-26T09:15:26.510Z,16.80
2023-04-26T09:17:53.842Z,17.00
2023-04-26T09:20:29.233Z,17.00
2023-04-26T09:23:08.292Z,16.90
2023-04-26T09:25:36.153Z,16.80
2023-04-26T09:28:04.552Z,16.90
2023-04-26T09:30:38.331Z,16.90
2023-04-26T09:33:06.916Z,16.80
2023-04-26T09:35:40.130Z,16.60
2023-04-26T09:38:14.691Z,16.50
2023-04-26T09:40:47.096Z,16.30
2023-04-26T09:43:16.308Z,16.30
2023-04-26T09:45:46.032Z,16.20
2023-04-26T09:48:34.529Z,16.20
2023-04-26T09:51:04.406Z,16.40
2023-04-26T09:53:41.370Z,16.60
2023-04-26T09:56:18.930Z,16.70
2023-04-26T09:58:58.425Z,16.80
2023-04-26T10:01:26.813Z,17.00
2023-04-26T10:03:55.305Z,17.20
2023-04-26T10:06:22.576Z,17.40
2023-04-26T10:08:49.482Z,17.40
2023-04-26T10:11:16.679Z,17.60
2023-04-26T10:13:44.931Z,17.70
2023-04-26T10:16:11.954Z,18.00
2023-04-26T10:18:39.066Z,18.40
2023-04-26T10:21:28.897Z,18.80
2023-04-26T10:23:56.686Z,19.30
2023-04-26T10:26:57.762Z,19.70
2023-04-26T10:29:26.235Z,20.00
2023-04-26T10:32:02.742Z,20.30
2023-04-26T10:34:31.803Z,20.50
2023-04-26T10:37:10.032Z,20.60
2023-04-26T10:39:37.942Z,20.70
2023-04-26T10:42:30.464Z,20.70
2023-04-26T10:44:59.257Z,20.60
2023-04-26T10:47:32.422Z,20.60
2023-04-26T10:50:09.568Z,20.70
2023-04-26T10:52:39.003Z,20.80
2023-04-26T10:55:08.164Z,21.10
2023-04-26T10:57:52.816Z,21.30
2023-04-26T11:00:21.354Z,21.50
2023-04-26T11:03:03.971Z,21.80
2023-04-26T11:05:39.532Z,21.90
2023-04-26T11:08:09.416Z,21.90
2023-04-26T11:10:39.636Z,21.80
2023-04-26T11:13:07.007Z,21.70
2023-04-26T11:15:34.690Z,21.70
2023-04-26T11:18:05.689Z,21.70
2023-04-26T11:20:33.556Z,21.40
2023-04-26T11:23:01.189Z,21.30
2023-04-26T11:25:29.190Z,21.30
2023-04-26T11:28:03.206Z,21.30
2023-04-26T11:30:32.042Z,21.30
2023-04-26T11:33:06.377Z,21.30
2023-04-26T11:35:37.071Z,21.10
2023-04-26T11:38:05.787Z,20.80
2023-04-26T11:40:33.805Z,20.80
2023-04-26T11:43:11.680Z,20.70
2023-04-26T11:45:39.264Z,20.70
2023-04-26T11:48:08.854Z,20.80
2023-04-26T11:50:37.684Z,21.00
2023-04-26T11:53:06.468Z,20.90
2023-04-26T11:55:34.415Z,20.80
2023-04-26T11:58:09.236Z,20.60
2023-04-26T12:00:36.491Z,20.70
2023-04-26T12:03:11.476Z,20.60
2023-04-26T12:05:38.629Z,20.60
2023-04-26T12:08:05.727Z,20.60
2023-04-26T12:10:39.316Z,20.50
2023-04-26T12:13:07.274Z,20.60
2023-04-26T12:15:35.500Z,20.60
2023-04-26T12:18:10.320Z,20.80
2023-04-26T12:20:40.114Z,20.80
2023-04-26T12:23:09.366Z,20.70
2023-04-26T12:25:40.595Z,20.70
2023-04-26T12:28:12.668Z,20.70
2023-04-26T12:30:41.261Z,20.80
2023-04-26T12:33:17.038Z,20.90
2023-04-26T12:35:46.808Z,20.80
2023-04-26T12:38:14.212Z,20.70
2023-04-26T12:40:42.710Z,20.50
2023-04-26T12:43:10.049Z,20.40
2023-04-26T12:45:37.271Z,20.30
2023-04-26T12:48:05.255Z,20.30
2023-04-26T12:50:33.268Z,20.40
2023-04-26T12:53:00.481Z,20.40
2023-04-26T12:55:28.208Z,20.30
2023-04-26T12:57:55.892Z,20.20
2023-04-26T13:00:24.131Z,20.30
2023-04-26T13:02:51.162Z,20.30
2023-04-26T13:05:18.190Z,20.20
2023-04-26T13:07:45.316Z,20.20
2023-04-26T13:10:13.311Z,20.00
2023-04-26T13:12:40.708Z,20.00
2023-04-26T13:15:08.994Z,19.70
2023-04-26T13:17:37.752Z,19.30
2023-04-26T13:20:06.702Z,18.90
2023-04-26T13:22:34.359Z,18.80
2023-04-26T13:25:01.683Z,18.80
2023-04-26T13:27:31.130Z,18.90
2023-04-26T13:29:58.751Z,18.90
2023-04-26T13:32:26.138Z,19.00
2023-04-26T13:34:53.507Z,19.00
2023-04-26T13:37:21.554Z,19.10
2023-04-26T13:39:48.958Z,19.10
2023-04-26T13:42:16.767Z,19.00
2023-04-26T13:44:44.064Z,19.00
2023-04-26T13:47:11.122Z,18.90
2023-04-26T13:49:41.120Z,18.90
2023-04-26T13:52:09.268Z,18.90
2023-04-26T13:54:36.939Z,18.90
2023-04-26T13:57:04.483Z,18.90
2023-04-26T13:59:31.625Z,18.70
2023-04-26T14:01:59.632Z,18.70
2023-04-26T14:04:27.241Z,18.60
2023-04-26T14:06:54.526Z,18.50
2023-04-26T14:09:21.567Z,18.50
2023-04-26T14:11:57.112Z,18.50
2023-04-26T14:14:33.890Z,18.50
2023-04-26T14:17:00.900Z,18.50
2023-04-26T14:19:27.904Z,18.40
2023-04-26T14:21:54.850Z,18.40
2023-04-26T14:24:21.821Z,18.40
2023-04-26T14:26:48.806Z,18.20
2023-04-26T14:29:15.777Z,18.10
2023-04-26T14:31:42.766Z,18.00
2023-04-26T14:34:10.365Z,17.90
2023-04-26T14:36:38.664Z,17.80
2023-04-26T14:39:05.836Z,17.70
2023-04-26T14:41:32.785Z,17.60
2023-04-26T14:44:00.147Z,17.40
2023-04-26T14:46:27.535Z,17.20
2023-04-26T14:48:55.326Z,16.90
2023-04-26T14:51:22.315Z,16.80
2023-04-26T14:53:49.242Z,16.60
2023-04-26T14:56:16.404Z,16.50
2023-04-26T14:58:43.427Z,16.30
2023-04-26T15:01:10.698Z,16.20
2023-04-26T15:03:38.015Z,16.10
2023-04-26T15:06:05.474Z,16.00
2023-04-26T15:08:33.171Z,15.90
2023-04-26T15:11:00.102Z,15.80
2023-04-26T15:13:27.337Z,15.70
2023-04-26T15:15:54.234Z,15.70
2023-04-26T15:18:21.176Z,15.60
2023-04-26T15:20:48.163Z,15.60
2023-04-26T15:23:15.206Z,15.60
2023-04-26T15:25:42.415Z,15.60
2023-04-26T15:28:09.412Z,15.60
2023-04-26T15:30:36.576Z,15.60
2023-04-26T15:33:03.677Z,15.50
2023-04-26T15:35:31.420Z,15.50
2023-04-26T15:37:58.378Z,15.40
2023-04-26T15:40:25.650Z,15.30
2023-04-26T15:42:52.691Z,15.20
2023-04-26T15:45:20.273Z,15.10
2023-04-26T15:47:47.445Z,15.00
2023-04-26T15:50:14.720Z,15.00
2023-04-26T15:52:42.183Z,14.80
2023-04-26T15:55:09.950Z,14.80
2023-04-26T15:57:37.823Z,14.80
2023-04-26T16:00:08.484Z,14.70
2023-04-26T16:02:36.093Z,14.60
2023-04-26T16:05:04.624Z,14.50
2023-04-26T16:07:31.844Z,14.40
2023-04-26T16:09:58.773Z,14.30
2023-04-26T16:12:25.901Z,14.20
2023-04-26T16:14:52.855Z,14.10
2023-04-26T16:17:19.780Z,14.00
2023-04-26T16:19:46.847Z,14.00
2023-04-26T16:22:14.973Z,13.90
2023-04-26T16:24:42.531Z,13.80
2023-04-26T16:27:09.693Z,13.70
2023-04-26T16:29:36.618Z,13.60
2023-04-26T16:32:03.739Z,13.50
2023-04-26T16:34:31.007Z,13.50
2023-04-26T16:36:58.067Z,13.40
2023-04-26T16:39:26.087Z,13.30
2023-04-26T16:41:54.101Z,13.20
2023-04-26T16:44:21.257Z,13.10
2023-04-26T16:46:48.196Z,13.10
2023-04-26T16:49:15.193Z,13.00
2023-04-26T16:51:44.433Z,13.00
2023-04-26T16:54:11.459Z,13.00
2023-04-26T16:56:38.484Z,13.00
2023-04-26T16:59:05.440Z,13.00
2023-04-26T17:01:32.499Z,13.00
2023-04-26T17:03:59.619Z,13.00
2023-04-26T17:06:26.753Z,12.90
2023-04-26T17:08:53.691Z,12.80
2023-04-26T17:11:20.770Z,12.70
2023-04-26T17:13:47.686Z,12.60
2023-04-26T17:16:14.683Z,12.50
2023-04-26T17:18:41.983Z,12.40
2023-04-26T17:21:09.078Z,12.30
2023-04-26T17:23:36.008Z,12.20
2023-04-26T17:26:03.094Z,12.20
2023-04-26T17:28:31.302Z,12.10
2023-04-26T17:30:58.338Z,12.10
2023-04-26T17:33:26.053Z,12.10
2023-04-26T17:35:53.062Z,12.00
2023-04-26T17:38:20.036Z,11.90
2023-04-26T17:40:51.491Z,11.90
2023-04-26T17:43:18.881Z,11.80
2023-04-26T17:45:46.164Z,11.80
2023-04-26T17:48:13.609Z,11.70
2023-04-26T17:50:40.623Z,11.50
2023-04-26T17:53:08.695Z,11.40
2023-04-26T17:55:36.607Z,11.40
2023-04-26T17:58:03.602Z,11.30
2023-04-26T18:00:30.639Z,11.20
2023-04-26T18:02:58.116Z,11.20
2023-04-26T18:05:25.584Z,11.10
2023-04-26T18:07:52.501Z,11.10
2023-04-26T18:10:19.637Z,11.00
2023-04-26T18:12:46.551Z,11.00
2023-04-26T18:15:13.942Z,11.00
2023-04-26T18:17:41.635Z,10.90
2023-04-26T18:20:09.487Z,10.80
2023-04-26T18:22:36.402Z,10.70
2023-04-26T18:25:04.027Z,10.60
2023-04-26T18:27:31.640Z,10.60
2023-04-26T18:29:58.773Z,10.50
2023-04-26T18:32:25.849Z,10.40
2023-04-26T18:34:52.807Z,10.40
2023-04-26T18:37:20.271Z,10.30
2023-04-26T18:39:48.719Z,10.30
2023-04-26T18:42:15.974Z,10.20
2023-04-26T18:44:42.918Z,10.10
2023-04-26T18:47:09.962Z,10.10
2023-04-26T18:49:36.973Z,10.00
2023-04-26T18:52:04.074Z,10.00
2023-04-26T18:54:33.192Z,9.90
2023-04-26T18:57:01.359Z,9.90
2023-04-26T18:59:30.230Z,9.90
2023-04-26T19:01:57.465Z,9.80
2023-04-26T19:04:24.671Z,9.80
2023-04-26T19:06:51.810Z,9.80
2023-04-26T19:09:18.847Z,9.70
2023-04-26T19:11:46.462Z,9.70
2023-04-26T19:14:13.593Z,9.60
2023-04-26T19:16:40.620Z,9.60
2023-04-26T19:19:07.557Z,9.60
2023-04-26T19:21:35.210Z,9.60
2023-04-26T19:24:02.197Z,9.50
2023-04-26T19:26:29.451Z,9.50
2023-04-26T19:28:56.496Z,9.50
2023-04-26T19:31:23.629Z,9.50
2023-04-26T19:33:50.962Z,9.40
2023-04-26T19:36:17.884Z,9.40
2023-04-26T19:38:44.936Z,9.40
2023-04-26T19:41:11.836Z,9.40
2023-04-26T19:43:38.776Z,9.40
2023-04-26T19:46:13.494Z,9.30
2023-04-26T19:48:41.577Z,9.30
2023-04-26T19:51:08.538Z,9.30
2023-04-26T19:53:35.702Z,9.30
2023-04-26T19:56:03.660Z,9.30
2023-04-26T19:58:30.669Z,9.30
2023-04-26T20:00:57.983Z,9.20
2023-04-26T20:03:25.151Z,9.20
2023-04-26T20:05:52.179Z,9.20
2023-04-26T20:08:19.302Z,9.10
2023-04-26T20:10:46.562Z,9.10
2023-04-26T20:13:13.544Z,9.10
2023-04-26T20:15:40.545Z,9.10
2023-04-26T20:18:07.540Z,9.00
2023-04-26T20:20:34.544Z,9.00
2023-04-26T20:23:03.256Z,9.00
2023-04-26T20:25:30.219Z,8.90
2023-04-26T20:27:57.233Z,8.90
2023-04-26T20:30:24.333Z,8.90
2023-04-26T20:32:51.308Z,8.90
2023-04-26T20:35:18.309Z,8.90
2023-04-26T20:37:45.309Z,8.90
2023-04-26T20:40:12.367Z,8.90
2023-04-26T20:42:39.732Z,8.80
2023-04-26T20:45:07.237Z,8.80
2023-04-26T20:47:34.382Z,8.80
2023-04-26T20:50:01.352Z,8.80
2023-04-26T20:52:28.473Z,8.80
2023-04-26T20:54:58.103Z,8.80
2023-04-26T20:57:25.938Z,8.80
2023-04-26T20:59:53.050Z,8.70
2023-04-26T21:02:20.048Z,8.70
2023-04-26T21:04:47.183Z,8.70
2023-04-26T21:07:14.539Z,8.70
2023-04-26T21:09:42.672Z,8.70
2023-04-26T21:12:09.621Z,8.60
2023-04-26T21:14:36.654Z,8.60
2023-04-26T21:17:05.548Z,8.60
2023-04-26T21:19:33.563Z,8.60
2023-04-26T21:22:00.532Z,8.60
2023-04-26T21:24:27.508Z,8.50
2023-04-26T21:26:54.432Z,8.50
2023-04-26T21:29:21.412Z,8.50
2023-04-26T21:31:48.436Z,8.50
2023-04-26T21:34:15.637Z,8.40
2023-04-26T21:36:42.616Z,8.40
2023-04-26T21:39:10.150Z,8.40
2023-04-26T21:41:37.280Z,8.30
2023-04-26T21:44:04.372Z,8.30
2023-04-26T21:46:31.481Z,8.30
2023-04-26T21:48:58.515Z,8.30
2023-04-26T21:51:25.520Z,8.20
2023-04-26T21:53:52.440Z,8.20
2023-04-26T21:56:19.348Z,8.20
2023-04-26T21:58:46.404Z,8.20
2023-04-26T22:01:15.231Z,8.10
2023-04-26T22:03:42.442Z,8.10
2023-04-26T22:06:10.000Z,8.10
2023-04-26T22:08:36.992Z,8.10
2023-04-26T22:11:04.181Z,8.10
2023-04-26T22:13:31.657Z,8.10
2023-04-26T22:15:58.808Z,8.10
2023-04-26T22:18:26.542Z,8.10
2023-04-26T22:20:53.998Z,8.10
2023-04-26T22:23:21.208Z,8.10
2023-04-26T22:25:48.134Z,8.00
2023-04-26T22:28:15.826Z,8.00
2023-04-26T22:30:42.817Z,8.00
2023-04-26T22:33:11.229Z,8.00
2023-04-26T22:35:38.344Z,8.00
2023-04-26T22:38:05.343Z,8.00
2023-04-26T22:40:32.732Z,7.90
2023-04-26T22:43:00.124Z,7.90
2023-04-26T22:45:27.221Z,7.90
2023-04-26T22:47:54.323Z,7.90
2023-04-26T22:50:21.777Z,7.80
2023-04-26T22:52:51.025Z,7.80
2023-04-26T22:55:18.304Z,7.80
2023-04-26T22:57:45.445Z,7.80
2023-04-26T23:00:14.254Z,7.70
2023-04-26T23:02:41.494Z,7.70
2023-04-26T23:05:11.723Z,7.60
2023-04-26T23:07:39.904Z,7.60
2023-04-26T23:10:07.579Z,7.60
2023-04-26T23:12:36.148Z,7.50
2023-04-26T23:15:05.213Z,7.50
2023-04-26T23:17:34.083Z,7.50
2023-04-26T23:20:01.382Z,7.50
2023-04-26T23:22:28.384Z,7.40
2023-04-26T23:24:55.543Z,7.50
2023-04-26T23:27:24.463Z,7.50
2023-04-26T23:29:51.805Z,7.40
2023-04-26T23:32:18.759Z,7.40
2023-04-26T23:34:45.731Z,7.40
2023-04-26T23:37:12.676Z,7.40
2023-04-26T23:39:39.608Z,7.40
2023-04-26T23:42:06.750Z,7.40
2023-04-26T23:44:33.757Z,7.40
2023-04-26T23:47:01.260Z,7.40
2023-04-26T23:49:28.370Z,7.30
2023-04-26T23:51:55.541Z,7.30
2023-04-26T23:54:22.542Z,7.30
2023-04-26T23:56:49.494Z,7.30
2023-04-26T23:59:16.930Z,7.30
